createdAt,value
2019-05-21T00:02:17.014Z,6.83
2019-05-21T00:04:47.031Z,5.40
2019-05-21T00:07:17.022Z,5.03
2019-05-21T00:09:47.164Z,4.93
2019-05-21T00:12:19.228Z,4.47
2019-05-21T00:14:49.740Z,4.07
2019-05-21T00:17:19.751Z,4.47
2019-05-21T00:19:50.204Z,3.87
2019-05-21T00:22:20.640Z,4.23
2019-05-21T00:24:51.320Z,4.47
2019-05-21T00:27:21.795Z,3.57
2019-05-21T00:30:27.678Z,3.70
2019-05-21T00:33:34.054Z,4.23
2019-05-21T00:36:41.369Z,3.53
2019-05-21T00:39:47.680Z,3.30
2019-05-21T00:42:29.910Z,2.73
2019-05-21T00:45:00.977Z,2.80
2019-05-21T00:47:31.346Z,3.43
2019-05-21T00:50:01.565Z,3.53
2019-05-21T00:52:32.011Z,2.80
2019-05-21T00:55:02.021Z,3.50
2019-05-21T00:57:34.054Z,3.60
2019-05-21T01:00:04.759Z,3.00
2019-05-21T01:02:36.272Z,3.17
2019-05-21T01:05:06.430Z,3.80
2019-05-21T01:07:37.048Z,3.90
2019-05-21T01:10:07.361Z,3.30
2019-05-21T01:12:37.849Z,4.60
2019-05-21T01:15:08.299Z,4.63
2019-05-21T01:17:38.762Z,3.90
2019-05-21T01:20:09.023Z,4.07
2019-05-21T01:22:39.496Z,4.33
2019-05-21T01:25:09.722Z,4.87
2019-05-21T01:27:39.804Z,4.23
2019-05-21T01:30:10.006Z,4.00
2019-05-21T01:32:40.540Z,4.50
2019-05-21T01:35:17.213Z,3.90
2019-05-21T01:37:42.308Z,4.53
2019-05-21T01:40:12.430Z,4.33
2019-05-21T01:42:42.438Z,4.87
2019-05-21T01:45:12.487Z,5.27
2019-05-21T01:47:42.669Z,5.13
2019-05-21T01:50:12.782Z,4.40
2019-05-21T01:52:42.890Z,5.00
2019-05-21T01:55:13.979Z,5.10
2019-05-21T01:57:44.089Z,5.53
2019-05-21T02:00:14.271Z,6.60
2019-05-21T02:02:44.585Z,5.77
2019-05-21T02:05:14.600Z,6.33
2019-05-21T02:07:46.383Z,5.20
2019-05-21T02:10:16.479Z,5.63
2019-05-21T02:12:47.484Z,5.13
2019-05-21T02:15:17.971Z,6.23
2019-05-21T02:17:49.187Z,6.17
2019-05-21T02:20:20.264Z,6.50
2019-05-21T02:22:50.460Z,6.23
2019-05-21T02:25:22.095Z,5.33
2019-05-21T02:27:52.842Z,5.47
2019-05-21T02:30:23.410Z,5.77
2019-05-21T02:32:53.536Z,5.40
2019-05-21T02:35:24.032Z,5.60
2019-05-21T02:37:54.163Z,6.33
2019-05-21T02:40:24.177Z,5.87
2019-05-21T02:42:54.206Z,5.30
2019-05-21T02:45:24.286Z,6.03
2019-05-21T02:47:54.367Z,6.00
2019-05-21T02:50:25.084Z,6.33
2019-05-21T02:52:55.823Z,6.93
2019-05-21T02:55:25.999Z,5.50
2019-05-21T02:57:56.476Z,4.83
2019-05-21T03:00:38.643Z,5.23
2019-05-21T03:03:08.113Z,5.50
2019-05-21T03:05:38.149Z,6.13
2019-05-21T03:08:08.630Z,6.00
2019-05-21T03:10:38.686Z,6.00
2019-05-21T03:13:08.776Z,7.80
2019-05-21T03:15:39.040Z,7.40
2019-05-21T03:18:10.342Z,8.07
2019-05-21T03:20:40.374Z,7.83
2019-05-21T03:23:10.398Z,8.13
2019-05-21T03:25:41.031Z,8.57
2019-05-21T03:28:11.308Z,8.97
2019-05-21T03:30:41.325Z,9.67
2019-05-21T03:33:12.685Z,9.67
2019-05-21T03:35:42.908Z,11.03
2019-05-21T03:38:12.959Z,9.80
2019-05-21T03:40:43.320Z,9.90
2019-05-21T03:43:13.835Z,11.30
2019-05-21T03:45:43.892Z,13.03
2019-05-21T03:48:14.195Z,10.73
2019-05-21T03:50:44.277Z,12.17
2019-05-21T03:53:15.765Z,12.90
2019-05-21T03:55:45.888Z,10.80
2019-05-21T03:58:15.972Z,10.77
2019-05-21T04:00:46.341Z,10.33
2019-05-21T04:03:16.469Z,10.60
2019-05-21T04:05:46.783Z,9.77
2019-05-21T04:08:16.878Z,10.03
2019-05-21T04:10:47.467Z,8.83
2019-05-21T04:13:17.691Z,9.00
2019-05-21T04:16:05.612Z,10.80
2019-05-21T04:18:54.674Z,9.70
2019-05-21T04:21:25.155Z,9.30
2019-05-21T04:23:55.189Z,9.43
2019-05-21T04:26:25.662Z,10.87
2019-05-21T04:28:55.732Z,9.17
2019-05-21T04:31:25.751Z,9.43
2019-05-21T04:33:55.911Z,10.17
2019-05-21T04:36:26.145Z,11.00
2019-05-21T04:38:56.628Z,11.60
2019-05-21T04:41:27.407Z,9.57
2019-05-21T04:43:58.537Z,9.67
2019-05-21T04:46:28.984Z,9.43
2019-05-21T04:49:00.613Z,11.07
2019-05-21T04:51:30.779Z,10.27
2019-05-21T04:54:02.035Z,12.63
2019-05-21T04:56:32.181Z,11.33
2019-05-21T04:59:02.639Z,11.50
2019-05-21T05:01:33.212Z,12.70
2019-05-21T05:04:03.782Z,10.30
2019-05-21T05:06:35.507Z,13.50
2019-05-21T05:09:06.945Z,10.83
2019-05-21T05:11:41.663Z,10.67
2019-05-21T05:14:12.031Z,13.57
2019-05-21T05:16:43.736Z,12.63
2019-05-21T05:19:14.681Z,11.40
2019-05-21T05:21:44.852Z,12.27
2019-05-21T05:24:17.473Z,11.70
2019-05-21T05:26:47.965Z,12.70
2019-05-21T05:29:18.322Z,11.50
2019-05-21T05:31:48.575Z,11.73
2019-05-21T05:34:20.322Z,12.33
2019-05-21T05:36:54.371Z,11.43
2019-05-21T05:39:24.575Z,11.93
2019-05-21T05:41:55.760Z,13.10
2019-05-21T05:44:25.967Z,12.17
2019-05-21T05:46:56.659Z,12.33
2019-05-21T05:49:32.297Z,12.77
2019-05-21T05:52:02.413Z,15.43
2019-05-21T05:54:33.141Z,14.80
2019-05-21T05:57:03.522Z,13.50
2019-05-21T05:59:34.086Z,13.67
2019-05-21T06:02:04.614Z,12.33
2019-05-21T06:04:36.818Z,10.40
2019-05-21T06:07:07.472Z,13.77
2019-05-21T06:09:39.840Z,12.57
2019-05-21T06:12:10.502Z,11.47
2019-05-21T06:14:40.802Z,11.90
2019-05-21T06:17:11.264Z,11.70
2019-05-21T06:19:42.534Z,12.80
2019-05-21T06:22:14.081Z,11.20
2019-05-21T06:24:44.850Z,10.80
2019-05-21T06:27:15.343Z,10.23
2019-05-21T06:29:45.699Z,10.13
2019-05-21T06:32:16.123Z,10.87
2019-05-21T06:34:48.759Z,10.37
2019-05-21T06:37:19.695Z,9.33
2019-05-21T06:39:49.733Z,9.47
2019-05-21T06:42:20.234Z,9.03
2019-05-21T06:44:50.845Z,10.00
2019-05-21T06:47:21.718Z,10.23
2019-05-21T06:49:52.532Z,10.67
2019-05-21T06:52:22.734Z,10.43
2019-05-21T06:54:54.378Z,10.03
2019-05-21T06:57:24.512Z,8.83
2019-05-21T06:59:55.715Z,8.87
2019-05-21T07:02:26.783Z,9.57
2019-05-21T07:04:58.638Z,9.50
2019-05-21T07:07:29.856Z,9.80
2019-05-21T07:10:00.025Z,9.80
2019-05-21T07:12:30.116Z,8.67
2019-05-21T07:15:00.923Z,9.20
2019-05-21T07:17:31.034Z,10.13
2019-05-21T07:20:01.643Z,9.13
2019-05-21T07:22:31.905Z,11.40
2019-05-21T07:25:02.318Z,8.23
2019-05-21T07:27:33.508Z,9.93
2019-05-21T07:30:06.732Z,8.17
2019-05-21T07:32:36.980Z,10.37
2019-05-21T07:35:07.954Z,10.63
2019-05-21T07:37:38.187Z,10.87
2019-05-21T07:40:10.209Z,9.00
2019-05-21T07:42:41.216Z,8.73
2019-05-21T07:45:11.646Z,8.00
2019-05-21T07:47:42.867Z,8.53
2019-05-21T07:50:13.783Z,9.27
2019-05-21T07:52:45.586Z,9.70
2019-05-21T07:55:17.600Z,9.90
2019-05-21T07:57:48.789Z,9.57
2019-05-21T08:00:20.559Z,8.40
2019-05-21T08:02:51.984Z,8.80
2019-05-21T08:05:22.084Z,10.13
2019-05-21T08:07:52.345Z,8.63
2019-05-21T08:10:22.470Z,9.13
2019-05-21T08:12:52.666Z,9.40
2019-05-21T08:15:22.665Z,11.00
2019-05-21T08:17:53.324Z,10.00
2019-05-21T08:20:25.818Z,9.13
2019-05-21T08:22:55.875Z,7.80
2019-05-21T08:25:27.475Z,7.97
2019-05-21T08:27:59.549Z,8.60
2019-05-21T08:30:32.257Z,8.40
2019-05-21T08:33:03.615Z,9.30
2019-05-21T08:35:34.027Z,8.10
2019-05-21T08:38:06.600Z,9.17
2019-05-21T08:40:39.660Z,9.53
2019-05-21T08:43:09.918Z,10.27
2019-05-21T08:45:40.531Z,11.93
2019-05-21T08:48:10.587Z,8.70
2019-05-21T08:50:41.493Z,10.20
2019-05-21T08:53:13.496Z,10.20
2019-05-21T08:55:43.599Z,8.57
2019-05-21T08:58:13.684Z,9.33
2019-05-21T09:00:45.521Z,10.27
2019-05-21T09:03:15.708Z,10.93
2019-05-21T09:05:46.315Z,11.60
2019-05-21T09:08:19.694Z,10.23
2019-05-21T09:10:49.974Z,9.40
2019-05-21T09:13:20.577Z,9.50
2019-05-21T09:15:50.908Z,12.87
2019-05-21T09:18:21.116Z,9.57
2019-05-21T09:20:52.903Z,10.93
2019-05-21T09:23:23.089Z,9.37
2019-05-21T09:25:53.463Z,10.37
2019-05-21T09:28:23.554Z,10.27
2019-05-21T09:30:53.953Z,9.50
2019-05-21T09:33:24.247Z,9.87
2019-05-21T09:35:55.444Z,9.40
2019-05-21T09:38:25.663Z,11.33
2019-05-21T09:40:56.333Z,12.27
2019-05-21T09:43:28.200Z,13.97
2019-05-21T09:45:58.814Z,13.33
2019-05-21T09:48:29.277Z,13.43
2019-05-21T09:51:00.155Z,12.33
2019-05-21T09:53:33.566Z,13.17
2019-05-21T09:56:22.933Z,14.87
2019-05-21T09:58:54.696Z,14.73
2019-05-21T10:01:31.399Z,12.93
2019-05-21T10:04:01.554Z,14.33
2019-05-21T10:06:32.037Z,14.50
2019-05-21T10:09:02.393Z,15.00
2019-05-21T10:11:34.452Z,15.47
2019-05-21T10:14:04.887Z,14.37
2019-05-21T10:16:36.377Z,14.23
2019-05-21T10:19:06.598Z,16.53
2019-05-21T10:21:37.853Z,14.63
2019-05-21T10:24:08.125Z,13.30
2019-05-21T10:26:40.598Z,12.17
2019-05-21T10:29:12.559Z,15.07
2019-05-21T10:31:44.216Z,14.90
2019-05-21T10:34:16.591Z,13.80
2019-05-21T10:36:48.159Z,16.27
2019-05-21T10:39:18.523Z,14.23
2019-05-21T10:41:49.285Z,15.80
2019-05-21T10:44:20.427Z,13.37
2019-05-21T10:46:51.056Z,15.03
2019-05-21T10:49:22.109Z,12.90
2019-05-21T10:51:53.206Z,14.20
2019-05-21T10:54:24.676Z,13.70
2019-05-21T10:56:55.947Z,14.47
2019-05-21T10:59:26.176Z,14.23
2019-05-21T11:02:16.486Z,13.27
2019-05-21T11:05:12.005Z,13.00
2019-05-21T11:07:42.879Z,15.77
2019-05-21T11:10:14.007Z,15.60
2019-05-21T11:12:44.435Z,17.27
2019-05-21T11:15:14.757Z,14.70
2019-05-21T11:17:53.687Z,13.77
2019-05-21T11:20:17.068Z,13.13
2019-05-21T11:22:47.426Z,12.93
2019-05-21T11:25:17.522Z,12.77
2019-05-21T11:27:47.830Z,11.60
2019-05-21T11:30:19.502Z,12.77
2019-05-21T11:32:49.952Z,11.53
2019-05-21T11:35:20.110Z,14.17
2019-05-21T11:37:50.294Z,10.03
2019-05-21T11:40:22.637Z,9.97
2019-05-21T11:42:53.452Z,10.10
2019-05-21T11:45:32.057Z,9.53
2019-05-21T11:47:56.197Z,11.70
2019-05-21T11:50:26.536Z,10.30
2019-05-21T11:52:57.779Z,8.73
2019-05-21T11:55:27.894Z,9.47
2019-05-21T11:57:57.974Z,8.93
2019-05-21T12:00:29.134Z,9.30
2019-05-21T12:03:01.411Z,7.83
2019-05-21T12:05:31.608Z,7.87
2019-05-21T12:08:03.126Z,8.73
2019-05-21T12:10:34.647Z,7.60
2019-05-21T12:13:05.695Z,9.10
2019-05-21T12:15:36.008Z,7.83
2019-05-21T12:18:06.157Z,8.37
2019-05-21T12:20:37.520Z,8.37
2019-05-21T12:23:08.308Z,8.17
2019-05-21T12:25:38.819Z,8.00
2019-05-21T12:28:11.411Z,9.30
2019-05-21T12:30:42.099Z,10.97
2019-05-21T12:33:12.535Z,7.57
2019-05-21T12:35:44.077Z,8.30
2019-05-21T12:38:14.190Z,7.67
2019-05-21T12:40:44.746Z,8.63
2019-05-21T12:43:14.863Z,9.13
2019-05-21T12:45:44.982Z,7.50
2019-05-21T12:48:15.350Z,7.50
2019-05-21T12:50:45.511Z,8.07
2019-05-21T12:53:17.820Z,7.57
2019-05-21T12:55:49.561Z,8.07
2019-05-21T12:58:20.236Z,7.90
2019-05-21T13:00:50.680Z,7.87
2019-05-21T13:03:20.881Z,8.03
2019-05-21T13:05:51.021Z,8.47
2019-05-21T13:08:21.649Z,8.10
2019-05-21T13:10:52.119Z,9.47
2019-05-21T13:13:22.717Z,10.90
2019-05-21T13:15:53.009Z,15.63
2019-05-21T13:18:24.456Z,8.43
2019-05-21T13:20:54.685Z,9.15
2019-05-21T13:23:25.323Z,9.10
2019-05-21T13:25:56.061Z,9.47
2019-05-21T13:28:26.236Z,8.60
2019-05-21T13:30:56.401Z,8.90
2019-05-21T13:33:26.839Z,9.73
2019-05-21T13:35:56.895Z,8.87
2019-05-21T13:38:27.487Z,9.60
2019-05-21T13:40:58.627Z,9.30
2019-05-21T13:43:28.721Z,10.40
2019-05-21T13:45:59.163Z,9.47
2019-05-21T13:48:32.660Z,9.43
2019-05-21T13:51:04.301Z,9.47
2019-05-21T13:53:35.065Z,9.37
2019-05-21T13:56:08.209Z,9.67
2019-05-21T13:58:38.986Z,8.83
2019-05-21T14:01:10.569Z,9.47
2019-05-21T14:03:41.203Z,9.30
2019-05-21T14:06:11.315Z,9.70
2019-05-21T14:08:41.389Z,10.45
2019-05-21T14:11:11.470Z,11.20
2019-05-21T14:13:41.934Z,9.17
2019-05-21T14:16:12.328Z,9.45
2019-05-21T14:18:42.486Z,9.90
2019-05-21T14:21:15.610Z,9.85
2019-05-21T14:23:45.739Z,9.80
2019-05-21T14:26:16.277Z,10.28
2019-05-21T14:28:46.548Z,9.50
2019-05-21T14:31:19.108Z,10.50
2019-05-21T14:33:49.475Z,9.60
2019-05-21T14:36:19.616Z,10.00
2019-05-21T14:38:49.895Z,9.90
2019-05-21T14:41:20.094Z,13.05
2019-05-21T14:43:50.532Z,10.58
2019-05-21T14:46:20.848Z,11.20
2019-05-21T14:48:51.136Z,11.28
2019-05-21T14:51:21.389Z,10.50
2019-05-21T14:53:53.711Z,11.00
2019-05-21T14:56:29.375Z,12.23
2019-05-21T14:59:01.181Z,9.80
2019-05-21T15:01:31.522Z,9.83
2019-05-21T15:04:02.492Z,9.83
2019-05-21T15:06:32.808Z,9.70
2019-05-21T15:09:04.371Z,11.83
2019-05-21T15:11:34.565Z,9.97
2019-05-21T15:14:06.355Z,9.73
2019-05-21T15:16:36.543Z,9.30
2019-05-21T15:19:07.789Z,9.90
2019-05-21T15:21:45.507Z,10.20
2019-05-21T15:24:17.164Z,10.82
2019-05-21T15:26:48.040Z,9.95
2019-05-21T15:29:18.162Z,10.10
2019-05-21T15:31:48.578Z,10.37
2019-05-21T15:34:18.930Z,10.47
2019-05-21T15:36:49.116Z,12.53
2019-05-21T15:39:20.024Z,10.40
2019-05-21T15:41:50.268Z,10.10
2019-05-21T15:44:21.839Z,11.40
2019-05-21T15:46:52.219Z,12.83
2019-05-21T15:49:35.653Z,12.37
2019-05-21T15:51:55.382Z,10.13
2019-05-21T15:54:26.810Z,11.07
2019-05-21T15:56:57.157Z,11.73
2019-05-21T15:59:28.606Z,13.60
2019-05-21T16:01:58.740Z,13.20
2019-05-21T16:04:29.461Z,13.13
2019-05-21T16:06:59.964Z,11.63
2019-05-21T16:09:30.824Z,11.90
2019-05-21T16:12:00.976Z,11.93
2019-05-21T16:14:31.387Z,10.40
2019-05-21T16:17:01.888Z,12.00
2019-05-21T16:19:32.502Z,11.40
2019-05-21T16:22:02.667Z,12.30
2019-05-21T16:24:34.835Z,11.17
2019-05-21T16:27:05.418Z,14.67
2019-05-21T16:29:36.718Z,11.27
2019-05-21T16:32:09.668Z,13.93
2019-05-21T16:34:41.529Z,14.07
2019-05-21T16:37:11.768Z,15.13
2019-05-21T16:39:42.310Z,12.30
2019-05-21T16:42:12.435Z,11.83
2019-05-21T16:44:42.884Z,12.90
2019-05-21T16:47:13.289Z,11.73
2019-05-21T16:49:43.582Z,12.60
2019-05-21T16:52:14.110Z,11.93
2019-05-21T16:54:44.547Z,12.87
2019-05-21T16:57:14.842Z,12.27
2019-05-21T16:59:44.959Z,12.43
2019-05-21T17:02:15.408Z,12.07
2019-05-21T17:04:45.523Z,13.50
2019-05-21T17:07:15.892Z,14.13
2019-05-21T17:09:46.040Z,13.70
2019-05-21T17:12:16.739Z,11.60
2019-05-21T17:14:49.942Z,11.60
2019-05-21T17:17:20.730Z,12.30
2019-05-21T17:19:51.694Z,13.47
2019-05-21T17:22:21.853Z,12.60
2019-05-21T17:24:55.892Z,13.23
2019-05-21T17:27:26.135Z,15.03
2019-05-21T17:29:56.595Z,13.43
2019-05-21T17:32:26.775Z,13.30
2019-05-21T17:34:58.354Z,14.33
2019-05-21T17:37:28.499Z,13.97
2019-05-21T17:39:58.948Z,13.10
2019-05-21T17:42:29.115Z,14.07
2019-05-21T17:44:59.827Z,14.73
2019-05-21T17:47:32.832Z,15.73
2019-05-21T17:50:03.692Z,13.40
2019-05-21T17:52:34.306Z,13.63
2019-05-21T17:55:05.241Z,17.23
2019-05-21T17:57:37.975Z,13.03
2019-05-21T18:00:09.941Z,13.70
2019-05-21T18:02:40.819Z,14.20
2019-05-21T18:05:12.138Z,13.17
2019-05-21T18:07:44.039Z,14.50
2019-05-21T18:10:15.263Z,14.13
2019-05-21T18:12:45.590Z,14.73
2019-05-21T18:15:19.062Z,15.57
2019-05-21T18:17:49.514Z,14.93
2019-05-21T18:20:21.224Z,13.17
2019-05-21T18:22:54.032Z,14.00
2019-05-21T18:25:24.326Z,14.90
2019-05-21T18:27:54.934Z,13.57
2019-05-21T18:30:25.433Z,16.37
2019-05-21T18:32:56.907Z,14.97
2019-05-21T18:35:27.138Z,14.30
2019-05-21T18:37:57.560Z,14.70
2019-05-21T18:40:27.917Z,14.37
2019-05-21T18:42:58.413Z,15.07
2019-05-21T18:45:28.896Z,13.70
2019-05-21T18:47:59.160Z,13.90
2019-05-21T18:50:36.021Z,15.13
2019-05-21T18:53:01.229Z,15.07
2019-05-21T18:55:31.633Z,14.30
2019-05-21T18:58:02.074Z,14.80
2019-05-21T19:00:34.260Z,15.30
2019-05-21T19:03:04.494Z,20.80
2019-05-21T19:05:35.018Z,16.37
2019-05-21T19:08:05.523Z,15.30
2019-05-21T19:10:36.962Z,14.80
2019-05-21T19:13:07.387Z,15.63
2019-05-21T19:15:37.695Z,15.03
2019-05-21T19:18:07.855Z,15.70
2019-05-21T19:20:37.973Z,14.53
2019-05-21T19:23:08.342Z,15.53
2019-05-21T19:25:38.636Z,14.47
2019-05-21T19:28:08.802Z,15.70
2019-05-21T19:30:39.670Z,15.37
2019-05-21T19:33:10.002Z,15.10
2019-05-21T19:35:42.214Z,14.03
2019-05-21T19:38:12.626Z,16.80
2019-05-21T19:40:42.956Z,18.37
2019-05-21T19:43:13.161Z,14.03
2019-05-21T19:45:43.817Z,14.70
2019-05-21T19:48:13.990Z,15.23
2019-05-21T19:50:44.704Z,14.80
2019-05-21T19:53:14.739Z,15.83
2019-05-21T19:55:45.214Z,15.60
2019-05-21T19:58:15.345Z,15.43
2019-05-21T20:00:54.616Z,16.03
2019-05-21T20:03:25.372Z,16.10
2019-05-21T20:05:56.171Z,16.17
2019-05-21T20:08:28.416Z,14.67
2019-05-21T20:10:59.313Z,15.43
2019-05-21T20:13:32.542Z,15.53
2019-05-21T20:16:02.950Z,16.17
2019-05-21T20:18:33.914Z,16.30
2019-05-21T20:21:08.135Z,16.63
2019-05-21T20:23:38.665Z,16.90
2019-05-21T20:26:13.055Z,15.70
2019-05-21T20:28:43.550Z,15.43
2019-05-21T20:31:15.370Z,14.47
2019-05-21T20:33:49.068Z,15.33
2019-05-21T20:36:19.639Z,15.10
2019-05-21T20:38:50.752Z,16.03
2019-05-21T20:41:22.758Z,13.77
2019-05-21T20:43:59.101Z,15.13
2019-05-21T20:46:25.636Z,14.40
2019-05-21T20:52:31.160Z,13.23
2019-05-21T20:55:01.908Z,15.53
2019-05-21T20:57:35.606Z,13.57
2019-05-21T21:00:06.469Z,14.00
2019-05-21T21:02:38.607Z,13.60
2019-05-21T21:05:08.843Z,13.83
2019-05-21T21:07:39.531Z,14.33
2019-05-21T21:10:11.860Z,13.33
2019-05-21T21:12:43.478Z,12.93
2019-05-21T21:15:13.977Z,13.23
2019-05-21T21:17:44.558Z,13.63
2019-05-21T21:20:15.028Z,13.83
2019-05-21T21:22:45.774Z,12.90
2019-05-21T21:25:21.012Z,13.43
2019-05-21T21:27:51.382Z,13.60
2019-05-21T21:30:21.437Z,12.63
2019-05-21T21:32:51.644Z,12.00
2019-05-21T21:35:23.282Z,11.47
2019-05-21T21:37:53.622Z,12.57
2019-05-21T21:40:23.672Z,12.60
2019-05-21T21:42:54.263Z,12.73
2019-05-21T21:45:24.402Z,11.97
2019-05-21T21:47:55.455Z,11.67
2019-05-21T21:50:28.116Z,12.57
2019-05-21T21:52:58.871Z,12.27
2019-05-21T21:55:31.970Z,13.07
2019-05-21T21:58:01.813Z,13.63
2019-05-21T22:01:37.592Z,13.30
2019-05-21T22:04:09.758Z,12.03
2019-05-21T22:06:43.171Z,11.30
2019-05-21T22:09:29.052Z,11.50
2019-05-21T22:12:00.140Z,11.40
2019-05-21T22:14:31.133Z,11.83
2019-05-21T22:17:01.996Z,12.13
2019-05-21T22:19:32.606Z,12.37
2019-05-21T22:22:04.866Z,12.70
2019-05-21T22:24:36.309Z,14.30
2019-05-21T22:27:07.521Z,12.87
2019-05-21T22:29:38.257Z,13.03
2019-05-21T22:32:08.819Z,12.30
2019-05-21T22:34:40.748Z,11.43
2019-05-21T22:37:14.841Z,12.13
2019-05-21T22:39:47.909Z,12.47
2019-05-21T22:42:18.426Z,11.77
2019-05-21T22:44:49.295Z,11.90
2019-05-21T22:47:19.834Z,11.87
2019-05-21T22:49:49.983Z,12.40
2019-05-21T22:52:20.420Z,12.23
2019-05-21T22:54:50.795Z,12.63
2019-05-21T22:57:20.890Z,12.83
2019-05-21T22:59:52.468Z,13.20
2019-05-21T23:02:26.731Z,12.80
2019-05-21T23:04:57.639Z,13.27
2019-05-21T23:07:27.755Z,13.30
2019-05-21T23:09:58.522Z,11.50
2019-05-21T23:12:29.456Z,12.97
2019-05-21T23:14:59.808Z,11.63
2019-05-21T23:17:31.619Z,12.70
2019-05-21T23:20:04.958Z,12.63
2019-05-21T23:22:36.931Z,12.47
2019-05-21T23:25:07.910Z,14.33
2019-05-21T23:27:38.872Z,14.07
2019-05-21T23:30:11.926Z,14.17
2019-05-21T23:32:41.994Z,14.70
2019-05-21T23:35:14.325Z,14.40
2019-05-21T23:37:46.803Z,13.40
2019-05-21T23:40:18.218Z,13.07
2019-05-21T23:42:48.328Z,12.90
2019-05-21T23:45:19.600Z,13.43
2019-05-21T23:47:49.921Z,13.17
2019-05-21T23:50:21.269Z,13.83
2019-05-21T23:52:52.480Z,14.73
2019-05-21T23:55:23.884Z,14.57
2019-05-21T23:57:56.048Z,15.60
